Hawleyville, CT

12:08 AM EDT on October 01, 2014 (GMT -0400)
KCTSOUTH13 | Change Station
CLOSE
Current Station
Personal Weather Station
Location: Astrium Satellite, Southbury, CT
Elevation: 121 ft
Nearby Weather Stations

Elev 121 ft 41.45 °N, 73.29 °W | Updated 38 seconds ago

Overcast
Overcast
60.7 °F
Feels Like 60.7 °F
N
0.0
Wind Variable Wind from SW
Gusts 0.0 mph

Today
High -- | Low -- °F
--% Chance of Precip.
Yesterday
High -- | Low -- °F
Precip. -- in
6:50 AM 6:35 PM
Waxing Crescent, 43% visible
Pressure 30.03 in
Visibility 10.0 miles
Clouds Mostly Cloudy 1000 ft
Mostly Cloudy 1600 ft
Overcast 4600 ft
Dew Point 58 °F
Humidity 90%
Rainfall 0.00 in
Snow Depth Not available.
UV 0 out of 12
Pollen 1.50 out of 12
Ozone Good
PM2.5 Good
Flu Activity Not available.
SPECI KDXR 010402Z AUTO 00000KT 10SM BKN010 BKN016 OVC046 15/13 A3003 RMK AO2 T01500128

More Conditions Fewer Conditions

Pressure 30.03 in
Visibility 10.0 miles
Clouds Mostly Cloudy 1000 ft
Mostly Cloudy 1600 ft
Overcast 4600 ft
Dew Point 58 °F
Humidity 90%
Rainfall 0.00 in
Snow Depth Not available.
UV 0 out of 12
Pollen 1.50 out of 12
Ozone Good
PM2.5 Good
Flu Activity Not available.
SPECI KDXR 010402Z AUTO 00000KT 10SM BKN010 BKN016 OVC046 15/13 A3003 RMK AO2 T01500128

More Conditions Fewer Conditions

10-Day Weather Forecast

Almanac

Astronomy

Oct. 01, 2014 Rise Set
Actual Time 6:50 AM EDT 6:35 PM EDT
Civil Twilight 6:22 AM EDT 7:02 PM EDT
Nautical Twilight 5:50 AM EDT 7:34 PM EDT
Astronomical Twilight 5:17 AM EDT 8:07 PM EDT
Moon 1:51 PM EDT No Moon Set
Length of Visible Light 12h 40m
Length of Day
11h 45m
Tomorrow will be 2m 44s shorter.
Waxing Crescent, 43% of the Moon is Illuminated
Today
Waxing Crescent
Oct 1
First Quarter
Oct 8
Full
Oct 15
Last Quarter
Oct 23
New

Yesterday's Extremes

State Highs State Lows

Community

WunderPhotos

Upload Photos

1,757,840 photos uploaded!

Nearby

Air Quality

  Air Quality AQ Index Pollutant
Yesterday Moderate
PM2.5
Yesterday Good
OZONE
Current Good
PM2.5
Current Good
OZONE
Tuesday Moderate
PM2.5
Tuesday Good
OZONE
Wednesday Good
OZONE
Wednesday Good
PM2.5

Snow Depth

Station Depth Elevation
No new snow has been reported.

Earthquake Activity

City Distance Mag. Time & Date
No recent earthquake activity has been reported nearby.
Minimum magnitude displayed is 2.5.

Coastal Water Temperatures

Place Temperature
Kings Point, NY 66.9 °F
Bridgeport, CT 69.1 °F

Nearby Weather Stations